GCLP

Gran Canaria Airport

Gran Canaria Island, Spain
TAF GCLP 232000Z 2321/2421 34014KT 9999 BKN060 TX22/2414Z TN16/2406Z PROB30 TEMPO 2321/2403 RA PROB40 TEMPO 2408/2418 35018G28KT
Issued Valid From Valid To
Apr-23 @ 20:00 UTC
(3 hours ago)
Apr-23 @ 21:00 UTC
(2 hours ago)
Apr-24 @ 21:00 UTC
(in 22 hours)
Apr-23 @ 21:00 to Apr-24 @ 21:00
TAF GCLP 232000Z 2321/2421 34014KT 9999 BKN060 TX22/2414Z TN16/2406Z
Wind Visibility Clouds
340° at 14 knots 10,000+ meters
  • Broken at 6,000' AGL
Temporary  (Probability 30%) Apr-23 @ 21:00 to Apr-24 @ 03:00
PROB30 TEMPO 2321/2403 RA
Conditions
  • Rain
Temporary  (Probability 40%) Apr-24 @ 08:00 to Apr-24 @ 18:00
PROB40 TEMPO 2408/2418 35018G28KT
Wind
350° at 18 knots
 Gusting to 28 knots
TAF GCLP 232000Z 2321/2421 34014KT 9999 BKN060 TX22/2414Z TN16/2406Z PROB30 TEMPO 2321/2403 RA PROB40 TEMPO 2408/2418 35018G28KT
Issued Apr-23 @ 20:00 UTC
(3 hours ago)
Valid From Apr-23 @ 21:00 UTC
(2 hours ago)
Valid To Apr-24 @ 21:00 UTC
(in 22 hours)
Apr-23 @ 21:00 - Apr-24 @ 21:00
Wind Visibility
340° at 14 knots 10,000+ meters
Clouds
  • Broken at 6,000' AGL
Probability 30% Temporary Apr-23 @ 21:00 - Apr-24 @ 03:00
Conditions
  • Rain
Probability 40% Temporary Apr-24 @ 08:00 - Apr-24 @ 18:00
Wind
350° at 18 knots
 Gusting to 28 knots